Time;durP1;ratioP1;P1;durP2;ratioP2;P2;SDS_P1;SDS_P2;PMS_P1;PMS_P2;Temp;Humidity;BMP_temperature;BMP_pressure;BME280_temperature;BME280_humidity;BME280_pressure;Samples;Min_cycle;Max_cycle;Signal;HPM_P1;HPM_P2
2023/01/04 00:01:05;;;;;;;;;;;;;;;;;;4991903;28;1969;-40
2023/01/04 00:03:33;;;;;;;;;;;;;;;;;;4991935;28;2067;-40
2023/01/04 00:06:01;;;;;;;;;;;;;;;;;;4991902;28;1223;-41
2023/01/04 00:08:29;;;;;;;;;;;;;;;;;;4974466;28;2072;-40
2023/01/04 00:11:03;;;;;;;;;;;;;;;;;;4991488;28;1821;-41
2023/01/04 00:13:30;;;;;;;;;;;;;;;;;;4991621;28;1491;-40
2023/01/04 00:15:58;;;;;;;;;;;;;;;;;;4992123;28;1693;-41
2023/01/04 00:18:33;;;;;;;;;;;;;;;;;;4991706;28;1135;-40
2023/01/04 00:21:14;;;;;;;;;;;;;;;;;;4991743;28;1666;-41
2023/01/04 00:23:42;;;;;;;;;;;;;;;;;;4991430;28;1907;-41
2023/01/04 00:26:20;;;;;;;;;;;;;;;;;;4991624;28;1525;-41
2023/01/04 00:28:47;;;;;;;;;;;;;;;;;;4991536;28;1676;-41
2023/01/04 00:31:20;;;;;;;;;;;;;;;;;;4974013;28;2061;-40
2023/01/04 00:33:48;;;;;;;;;;;;;;;;;;4991621;28;1620;-41
2023/01/04 00:36:15;;;;;;;;;;;;;;;;;;4991609;28;2507;-40
2023/01/04 00:38:42;;;;;;;;;;;;;;;;;;4991682;28;1586;-40
2023/01/04 00:41:10;;;;;;;;;;;;;;;;;;4991801;28;1950;-40
2023/01/04 00:43:58;;;;;;;;;;;;;;;;;;4991508;28;2032;-40
2023/01/04 00:46:25;;;;;;;;;;;;;;;;;;4990671;28;2017;-40
2023/01/04 00:48:53;;;;;;;;;;;;;;;;;;4991534;28;1305;-41
2023/01/04 00:51:29;;;;;;;;;;;;;;;;;;4974189;28;2092;-40
2023/01/04 00:53:57;;;;;;;;;;;;;;;;;;4991297;28;1962;-41
2023/01/04 00:56:24;;;;;;;;;;;;;;;;;;4991438;28;1704;-41
2023/01/04 00:58:55;;;;;;;;;;;;;;;;;;4991221;28;2000;-41
2023/01/04 01:01:25;;;;;;;;;;;;;;;;;;4991329;28;1964;-40
2023/01/04 01:03:53;;;;;;;;;;;;;;;;;;4991189;28;1920;-41
2023/01/04 01:06:21;;;;;;;;;;;;;;;;;;4991428;28;1847;-41
2023/01/04 01:08:48;;;;;;;;;;;;;;;;;;4991141;28;1662;-41
2023/01/04 01:11:16;;;;;;;;;;;;;;;;;;4991285;28;1831;-40
2023/01/04 01:13:43;;;;;;;;;;;;;;;;;;4990966;28;1877;-41
2023/01/04 01:16:12;;;;;;;;;;;;;;;;;;4991144;28;1722;-40
2023/01/04 01:18:40;;;;;;;;;;;;;;;;;;4991190;28;1590;-42
2023/01/04 01:21:09;;;;;;;;;;;;;;;;;;4991208;28;1854;-41
2023/01/04 01:23:36;;;;;;;;;;;;;;;;;;4992148;28;1943;-41
2023/01/04 01:26:05;;;;;;;;;;;;;;;;;;4994903;28;1925;-41
2023/01/04 01:28:33;;;;;;;;;;;;;;;;;;4994809;28;1421;-40
2023/01/04 01:31:07;;;;;;;;;;;;;;;;;;4994912;28;1708;-41
2023/01/04 01:33:35;;;;;;;;;;;;;;;;;;4994606;28;1641;-41
2023/01/04 01:36:03;;;;;;;;;;;;;;;;;;4994545;28;1379;-40
2023/01/04 01:38:31;;;;;;;;;;;;;;;;;;4994773;28;1828;-40
2023/01/04 01:40:58;;;;;;;;;;;;;;;;;;4994417;28;1276;-40
2023/01/04 01:43:44;;;;;;;;;;;;;;;;;;4994245;28;2337;-41
2023/01/04 01:46:12;;;;;;;;;;;;;;;;;;4994297;28;1774;-39
2023/01/04 01:48:39;;;;;;;;;;;;;;;;;;4994857;28;2175;-40
2023/01/04 01:51:07;;;;;;;;;;;;;;;;;;4994241;28;1283;-40
2023/01/04 01:53:36;;;;;;;;;;;;;;;;;;4994372;28;1924;-41
2023/01/04 01:56:05;;;;;;;;;;;;;;;;;;4976870;28;1842;-39
2023/01/04 01:58:34;;;;;;;;;;;;;;;;;;4994168;28;1950;-41
2023/01/04 02:01:02;;;;;;;;;;;;;;;;;;4994334;28;1925;-40
2023/01/04 02:03:31;;;;;;;;;;;;;;;;;;4993916;28;1969;-40
2023/01/04 02:06:00;;;;;;;;;;;;;;;;;;4992807;28;1771;-41
2023/01/04 02:08:29;;;;;;;;;;;;;;;;;;4993998;28;2247;-40
2023/01/04 02:10:56;;;;;;;;;;;;;;;;;;4997701;28;1728;-41
2023/01/04 02:14:25;;;;;;;;;;;;;;;;;;5013317;28;1583;-40
2023/01/04 02:16:22;;;;;;;;;;;;;;;;;;5013145;28;1695;-41
2023/01/04 02:19:09;;;;;;;;;;;;;;;;;;5013366;28;1410;-41
2023/01/04 02:21:57;;;;;;;;;;;;;;;;;;5013353;28;1275;-40
2023/01/04 02:24:47;;;;;;;;;;;;;;;;;;5012924;28;2022;-40
2023/01/04 02:27:14;;;;;;;;;;;;;;;;;;5008278;28;1723;-40
2023/01/04 02:30:00;;;;;;;;;;;;;;;;;;5013242;28;2213;-40
2023/01/04 02:32:45;;;;;;;;;;;;;;;;;;5013031;28;1621;-40
2023/01/04 02:35:20;;;;;;;;;;;;;;;;;;5012737;28;2314;-40
2023/01/04 02:37:57;;;;;;;;;;;;;;;;;;4995217;28;2155;-40
2023/01/04 02:40:46;;;;;;;;;;;;;;;;;;4993443;28;1824;-40
2023/01/04 02:46:34;;;;;;;;;;;;;;;;;;4993325;28;1610;-40
2023/01/04 02:51:47;;;;;;;;;;;;;;;;;;4992244;28;1706;-40
2023/01/04 02:54:22;;;;;;;;;;;;;;;;;;4993140;28;1648;-40
2023/01/04 02:56:49;;;;;;;;;;;;;;;;;;4993216;28;1400;-40
2023/01/04 02:59:25;;;;;;;;;;;;;;;;;;4993093;28;1682;-40
2023/01/04 03:07:48;;;;;;;;;;;;;;;;;;4993081;28;1872;-40
2023/01/04 03:10:34;;;;;;;;;;;;;;;;;;4993136;28;1828;-40
2023/01/04 03:13:05;;;;;;;;;;;;;;;;;;4992822;28;1926;-40
2023/01/04 03:15:33;;;;;;;;;;;;;;;;;;4992886;28;1541;-40
2023/01/04 03:18:09;;;;;;;;;;;;;;;;;;4992787;28;1968;-40
2023/01/04 03:20:36;;;;;;;;;;;;;;;;;;4992706;28;2169;-40
2023/01/04 03:37:29;;;;;;;;;;;;;;;;;;4992073;28;1772;-40
2023/01/04 03:48:43;;;;;;;;;;;;;;;;;;4992193;28;1863;-40
2023/01/04 03:51:14;;;;;;;;;;;;;;;;;;4992345;28;1868;-40
2023/01/04 03:53:54;;;;;;;;;;;;;;;;;;4992119;28;1355;-40
2023/01/04 03:56:23;;;;;;;;;;;;;;;;;;4991885;28;1709;-39
2023/01/04 03:58:50;;;;;;;;;;;;;;;;;;4992091;28;2061;-40
2023/01/04 04:01:19;;;;;;;;;;;;;;;;;;4991912;28;1732;-39
2023/01/04 04:09:17;;;;;;;;;;;;;;;;;;4991739;28;1970;-40
2023/01/04 04:11:44;;;;;;;;;;;;;;;;;;4991862;28;1725;-40
2023/01/04 04:14:12;;;;;;;;;;;;;;;;;;4992159;28;1699;-40
2023/01/04 04:16:39;;;;;;;;;;;;;;;;;;4991827;28;1985;-40
2023/01/04 04:19:06;;;;;;;;;;;;;;;;;;4990808;28;1565;-40
2023/01/04 04:21:34;;;;;;;;;;;;;;;;;;4991593;28;2082;-39
2023/01/04 04:24:02;;;;;;;;;;;;;;;;;;4991739;28;1915;-40
2023/01/04 04:26:29;;;;;;;;;;;;;;;;;;4991023;28;2007;-40
2023/01/04 04:28:56;;;;;;;;;;;;;;;;;;4991696;28;2107;-41
2023/01/04 04:31:23;;;;;;;;;;;;;;;;;;4991552;28;1771;-39
2023/01/04 04:33:51;;;;;;;;;;;;;;;;;;4991481;28;2134;-41
2023/01/04 04:36:18;;;;;;;;;;;;;;;;;;4991609;28;1803;-40
2023/01/04 04:38:45;;;;;;;;;;;;;;;;;;4974251;28;1866;-40
2023/01/04 04:43:59;;;;;;;;;;;;;;;;;;4991202;28;1910;-40
2023/01/04 04:46:26;;;;;;;;;;;;;;;;;;4990057;28;1636;-41
2023/01/04 04:48:54;;;;;;;;;;;;;;;;;;4991532;28;2010;-40
2023/01/04 04:51:21;;;;;;;;;;;;;;;;;;4990768;28;1951;-39
2023/01/04 04:53:48;;;;;;;;;;;;;;;;;;4991464;28;1836;-40
2023/01/04 04:56:16;;;;;;;;;;;;;;;;;;4991660;28;1234;-40
2023/01/04 04:58:43;;;;;;;;;;;;;;;;;;4994109;28;1971;-40
2023/01/04 05:01:10;;;;;;;;;;;;;;;;;;4995282;28;1437;-40
2023/01/04 05:03:37;;;;;;;;;;;;;;;;;;4995191;28;1918;-40
2023/01/04 05:06:05;;;;;;;;;;;;;;;;;;4993844;28;1678;-40
2023/01/04 05:08:32;;;;;;;;;;;;;;;;;;4995400;28;1229;-40
2023/01/04 05:11:03;;;;;;;;;;;;;;;;;;4994952;28;1858;-40
2023/01/04 05:13:31;;;;;;;;;;;;;;;;;;4995080;28;1818;-40
2023/01/04 05:16:05;;;;;;;;;;;;;;;;;;4995016;28;1365;-40
2023/01/04 05:18:32;;;;;;;;;;;;;;;;;;4994970;28;1677;-40
2023/01/04 05:20:59;;;;;;;;;;;;;;;;;;4995005;28;2002;-40
2023/01/04 05:23:29;;;;;;;;;;;;;;;;;;4994764;28;1995;-40
2023/01/04 05:25:58;;;;;;;;;;;;;;;;;;4994672;28;1816;-40
2023/01/04 05:28:26;;;;;;;;;;;;;;;;;;4994893;28;1187;-40
2023/01/04 05:30:54;;;;;;;;;;;;;;;;;;4994704;28;2295;-40
2023/01/04 05:33:28;;;;;;;;;;;;;;;;;;4994725;28;1906;-40
2023/01/04 05:35:57;;;;;;;;;;;;;;;;;;4994466;28;2850;-39
2023/01/04 05:38:25;;;;;;;;;;;;;;;;;;4994518;28;1728;-40
2023/01/04 05:40:52;;;;;;;;;;;;;;;;;;4994524;28;1806;-40
2023/01/04 05:43:20;;;;;;;;;;;;;;;;;;4993948;28;1912;-39
2023/01/04 05:45:48;;;;;;;;;;;;;;;;;;4994694;28;1499;-40
2023/01/04 05:48:16;;;;;;;;;;;;;;;;;;4994524;28;2084;-39
2023/01/04 05:50:44;;;;;;;;;;;;;;;;;;4994286;28;2062;-40
2023/01/04 05:53:12;;;;;;;;;;;;;;;;;;4994329;28;1781;-40
2023/01/04 05:55:43;;;;;;;;;;;;;;;;;;4994366;28;2160;-40
2023/01/04 05:58:10;;;;;;;;;;;;;;;;;;4994189;28;1989;-40
2023/01/04 06:00:37;;;;;;;;;;;;;;;;;;4994149;28;1817;-40
2023/01/04 06:03:05;;;;;;;;;;;;;;;;;;4993879;28;1535;-39
2023/01/04 06:05:32;;;;;;;;;;;;;;;;;;4992421;28;2096;-40
2023/01/04 06:07:59;;;;;;;;;;;;;;;;;;4993366;28;2031;-40
2023/01/04 06:10:26;;;;;;;;;;;;;;;;;;4993134;28;1555;-40
2023/01/04 06:12:57;;;;;;;;;;;;;;;;;;4993964;28;1618;-39
2023/01/04 06:15:24;;;;;;;;;;;;;;;;;;4993826;28;1745;-39
2023/01/04 06:17:51;;;;;;;;;;;;;;;;;;4993848;28;1632;-40
2023/01/04 06:20:19;;;;;;;;;;;;;;;;;;4994073;28;1558;-39
2023/01/04 06:22:46;;;;;;;;;;;;;;;;;;4993853;28;1486;-40
2023/01/04 06:25:13;;;;;;;;;;;;;;;;;;4993754;28;2143;-39
2023/01/04 06:27:40;;;;;;;;;;;;;;;;;;4993847;28;1531;-40
2023/01/04 06:30:07;;;;;;;;;;;;;;;;;;4993689;28;1637;-39
2023/01/04 06:32:35;;;;;;;;;;;;;;;;;;4993423;28;2055;-40
2023/01/04 06:35:02;;;;;;;;;;;;;;;;;;4993570;28;1515;-40
2023/01/04 06:37:29;;;;;;;;;;;;;;;;;;4993424;28;1923;-39
2023/01/04 06:39:56;;;;;;;;;;;;;;;;;;4993525;28;2021;-40
2023/01/04 06:45:10;;;;;;;;;;;;;;;;;;4993116;28;1977;-40
2023/01/04 06:47:38;;;;;;;;;;;;;;;;;;4993241;28;1303;-39
2023/01/04 06:50:05;;;;;;;;;;;;;;;;;;4993304;28;1639;-40
2023/01/04 06:52:32;;;;;;;;;;;;;;;;;;4993310;28;2141;-39
2023/01/04 06:55:03;;;;;;;;;;;;;;;;;;4993058;28;1265;-40
2023/01/04 06:57:31;;;;;;;;;;;;;;;;;;4992940;28;1429;-39
2023/01/04 06:59:58;;;;;;;;;;;;;;;;;;4993081;28;1954;-39
2023/01/04 07:02:25;;;;;;;;;;;;;;;;;;4993034;28;1557;-39
2023/01/04 07:04:52;;;;;;;;;;;;;;;;;;4993188;28;1912;-40
2023/01/04 07:07:20;;;;;;;;;;;;;;;;;;4992905;28;1991;-40
2023/01/04 07:09:48;;;;;;;;;;;;;;;;;;4992841;28;2074;-39
2023/01/04 07:12:17;;;;;;;;;;;;;;;;;;4992662;28;1832;-40
2023/01/04 07:14:45;;;;;;;;;;;;;;;;;;4992877;28;1787;-39
2023/01/04 07:17:12;;;;;;;;;;;;;;;;;;4992640;28;1250;-40
2023/01/04 07:19:39;;;;;;;;;;;;;;;;;;4992676;28;1626;-40
2023/01/04 07:22:06;;;;;;;;;;;;;;;;;;4992632;28;1943;-40
2023/01/04 07:24:33;;;;;;;;;;;;;;;;;;4992347;28;1906;-39
2023/01/04 07:27:01;;;;;;;;;;;;;;;;;;4992645;28;1625;-39
2023/01/04 07:29:28;;;;;;;;;;;;;;;;;;4992584;28;1197;-39
2023/01/04 07:31:55;;;;;;;;;;;;;;;;;;4992586;28;2010;-39
2023/01/04 07:34:23;;;;;;;;;;;;;;;;;;4992596;28;1957;-40
2023/01/04 07:36:50;;;;;;;;;;;;;;;;;;4991011;28;1352;-39
2023/01/04 07:39:18;;;;;;;;;;;;;;;;;;4992121;28;1729;-40
2023/01/04 07:41:46;;;;;;;;;;;;;;;;;;4992387;28;1471;-40
2023/01/04 07:44:17;;;;;;;;;;;;;;;;;;4974373;28;2336;-39
2023/01/04 07:46:47;;;;;;;;;;;;;;;;;;4992117;28;1743;-39
2023/01/04 07:49:17;;;;;;;;;;;;;;;;;;4992146;28;1809;-40
2023/01/04 07:51:45;;;;;;;;;;;;;;;;;;4991945;28;1985;-39
2023/01/04 07:54:13;;;;;;;;;;;;;;;;;;4992278;28;1740;-39
2023/01/04 07:56:40;;;;;;;;;;;;;;;;;;4992095;28;1504;-39
2023/01/04 07:59:08;;;;;;;;;;;;;;;;;;4992091;28;1556;-39
2023/01/04 08:01:37;;;;;;;;;;;;;;;;;;4992073;28;1272;-40
2023/01/04 08:04:05;;;;;;;;;;;;;;;;;;4991743;28;2200;-39
2023/01/04 08:06:33;;;;;;;;;;;;;;;;;;4992039;28;1490;-40
2023/01/04 08:09:00;;;;;;;;;;;;;;;;;;4991853;28;1249;-39
2023/01/04 08:11:28;;;;;;;;;;;;;;;;;;4991809;28;2055;-39
2023/01/04 08:13:56;;;;;;;;;;;;;;;;;;4992171;28;1777;-39
2023/01/04 08:16:23;;;;;;;;;;;;;;;;;;4991741;28;1837;-39
2023/01/04 08:18:54;;;;;;;;;;;;;;;;;;4991709;28;1336;-39
2023/01/04 08:21:22;;;;;;;;;;;;;;;;;;4991734;28;1708;-40
2023/01/04 08:23:50;;;;;;;;;;;;;;;;;;4991729;28;1970;-39
2023/01/04 08:26:18;;;;;;;;;;;;;;;;;;4990594;28;1540;-41
2023/01/04 08:28:45;;;;;;;;;;;;;;;;;;4991648;28;1884;-39
2023/01/04 08:31:16;;;;;;;;;;;;;;;;;;4991572;28;1983;-40
2023/01/04 08:33:44;;;;;;;;;;;;;;;;;;4997129;28;1687;-40
2023/01/04 08:36:19;;;;;;;;;;;;;;;;;;4998110;28;1215;-40
2023/01/04 08:38:53;;;;;;;;;;;;;;;;;;4997991;28;2023;-40
2023/01/04 08:41:26;;;;;;;;;;;;;;;;;;4998048;28;1844;-39
2023/01/04 08:44:13;;;;;;;;;;;;;;;;;;4997909;28;2053;-41
2023/01/04 08:46:40;;;;;;;;;;;;;;;;;;4998371;28;1751;-40
2023/01/04 08:49:07;;;;;;;;;;;;;;;;;;4998030;28;2055;-39
2023/01/04 08:51:34;;;;;;;;;;;;;;;;;;4998093;28;1316;-40
2023/01/04 08:54:02;;;;;;;;;;;;;;;;;;4997806;28;1624;-40
2023/01/04 08:56:33;;;;;;;;;;;;;;;;;;4998440;28;1944;-39
2023/01/04 08:59:00;;;;;;;;;;;;;;;;;;4997998;28;1661;-40
2023/01/04 09:01:27;;;;;;;;;;;;;;;;;;4997941;28;1853;-39
2023/01/04 09:03:55;;;;;;;;;;;;;;;;;;4998004;28;1624;-40
2023/01/04 09:06:25;;;;;;;;;;;;;;;;;;4997808;28;1971;-39
2023/01/04 09:08:54;;;;;;;;;;;;;;;;;;4998184;28;2116;-39
2023/01/04 09:11:21;;;;;;;;;;;;;;;;;;4997796;28;1546;-40
2023/01/04 09:13:53;;;;;;;;;;;;;;;;;;4997791;28;2479;-40
2023/01/04 09:16:20;;;;;;;;;;;;;;;;;;4998161;28;1682;-39
2023/01/04 09:18:47;;;;;;;;;;;;;;;;;;4997749;28;2086;-40
2023/01/04 09:21:16;;;;;;;;;;;;;;;;;;4997587;28;1693;-40
2023/01/04 09:23:43;;;;;;;;;;;;;;;;;;4997848;28;1666;-39
2023/01/04 09:26:18;;;;;;;;;;;;;;;;;;4997654;28;2031;-40
2023/01/04 09:28:49;;;;;;;;;;;;;;;;;;4997843;28;1862;-39
2023/01/04 09:31:18;;;;;;;;;;;;;;;;;;4997756;28;1987;-39
2023/01/04 09:33:45;;;;;;;;;;;;;;;;;;4997576;28;1685;-40
2023/01/04 09:36:32;;;;;;;;;;;;;;;;;;4997581;28;2157;-40
2023/01/04 09:39:00;;;;;;;;;;;;;;;;;;4997922;28;1888;-40
2023/01/04 09:41:28;;;;;;;;;;;;;;;;;;4996444;28;2053;-40
2023/01/04 09:44:15;;;;;;;;;;;;;;;;;;4995150;28;1249;-39
2023/01/04 09:46:46;;;;;;;;;;;;;;;;;;4987772;28;1589;-40
2023/01/04 09:49:19;;;;;;;;;;;;;;;;;;4994713;28;1613;-41
2023/01/04 09:51:55;;;;;;;;;;;;;;;;;;4994354;28;1763;-39
2023/01/04 09:54:26;;;;;;;;;;;;;;;;;;4994299;28;1346;-40
2023/01/04 09:56:58;;;;;;;;;;;;;;;;;;4994315;28;1775;-39
2023/01/04 09:59:30;;;;;;;;;;;;;;;;;;4994312;28;1713;-40
2023/01/04 10:02:03;;;;;;;;;;;;;;;;;;4994346;28;2277;-40
2023/01/04 10:04:40;;;;;;;;;;;;;;;;;;4994094;28;1916;-40
2023/01/04 10:07:13;;;;;;;;;;;;;;;;;;4993798;28;1820;-40
2023/01/04 10:09:40;;;;;;;;;;;;;;;;;;4993965;28;1654;-39
2023/01/04 10:12:12;;;;;;;;;;;;;;;;;;4993852;28;2084;-40
2023/01/04 10:15:02;;;;;;;;;;;;;;;;;;4993999;28;1511;-40
2023/01/04 10:17:35;;;;;;;;;;;;;;;;;;4993889;28;1582;-40
2023/01/04 10:20:34;;;;;;;;;;;;;;;;;;4993839;28;1153;-40
2023/01/04 10:23:25;;;;;;;;;;;;;;;;;;4993669;28;1803;-40
2023/01/04 10:25:56;;;;;;;;;;;;;;;;;;4993489;28;1985;-40
2023/01/04 10:28:31;;;;;;;;;;;;;;;;;;4993775;28;1672;-40
2023/01/04 10:31:10;;;;;;;;;;;;;;;;;;4993628;28;1868;-39
2023/01/04 10:34:00;;;;;;;;;;;;;;;;;;4993483;28;1804;-40
2023/01/04 10:36:30;;;;;;;;;;;;;;;;;;4993436;28;1724;-40
2023/01/04 10:39:04;;;;;;;;;;;;;;;;;;4994000;28;2294;-40
2023/01/04 10:41:34;;;;;;;;;;;;;;;;;;4993512;28;1680;-40
2023/01/04 10:44:17;;;;;;;;;;;;;;;;;;4993298;28;1668;-41
2023/01/04 10:47:09;;;;;;;;;;;;;;;;;;4992986;28;1978;-41
2023/01/04 10:49:47;;;;;;;;;;;;;;;;;;4993271;28;1967;-40
2023/01/04 10:52:17;;;;;;;;;;;;;;;;;;4993231;28;1969;-40
2023/01/04 10:54:51;;;;;;;;;;;;;;;;;;4993157;28;1993;-40
2023/01/04 10:57:21;;;;;;;;;;;;;;;;;;4993056;28;1981;-41
2023/01/04 10:59:57;;;;;;;;;;;;;;;;;;4993125;28;1937;-40
2023/01/04 11:02:46;;;;;;;;;;;;;;;;;;4993064;28;1511;-40
2023/01/04 11:05:31;;;;;;;;;;;;;;;;;;4992754;28;1920;-40
2023/01/04 11:08:09;;;;;;;;;;;;;;;;;;4992967;28;1831;-41
2023/01/04 11:10:39;;;;;;;;;;;;;;;;;;4993093;28;1476;-40
2023/01/04 11:13:07;;;;;;;;;;;;;;;;;;4993124;28;1665;-41
2023/01/04 11:15:34;;;;;;;;;;;;;;;;;;4993051;28;1757;-40
2023/01/04 11:18:03;;;;;;;;;;;;;;;;;;4991901;28;1333;-39
2023/01/04 11:20:30;;;;;;;;;;;;;;;;;;4992722;28;2064;-40
2023/01/04 11:23:09;;;;;;;;;;;;;;;;;;4992787;28;1396;-40
2023/01/04 11:25:41;;;;;;;;;;;;;;;;;;4992622;28;2009;-39
2023/01/04 11:28:14;;;;;;;;;;;;;;;;;;4992930;28;1470;-39
2023/01/04 11:31:00;;;;;;;;;;;;;;;;;;4992526;28;1545;-40
2023/01/04 11:33:28;;;;;;;;;;;;;;;;;;4992402;28;2160;-40
2023/01/04 11:35:57;;;;;;;;;;;;;;;;;;4992424;28;1481;-40
2023/01/04 11:38:29;;;;;;;;;;;;;;;;;;4992302;28;1525;-40
2023/01/04 11:40:59;;;;;;;;;;;;;;;;;;4992221;28;1606;-40
2023/01/04 11:43:27;;;;;;;;;;;;;;;;;;4991987;28;1465;-40
2023/01/04 11:46:02;;;;;;;;;;;;;;;;;;4992237;28;1914;-40
2023/01/04 11:48:43;;;;;;;;;;;;;;;;;;4992334;28;1762;-40
2023/01/04 11:51:16;;;;;;;;;;;;;;;;;;4992337;28;1796;-41
2023/01/04 11:53:44;;;;;;;;;;;;;;;;;;4992217;28;1498;-41
2023/01/04 11:56:13;;;;;;;;;;;;;;;;;;4975171;28;2137;-41
2023/01/04 11:58:44;;;;;;;;;;;;;;;;;;4992246;28;1477;-39
2023/01/04 12:01:22;;;;;;;;;;;;;;;;;;4992351;28;1600;-40
2023/01/04 12:03:49;;;;;;;;;;;;;;;;;;4991690;28;1779;-39
2023/01/04 12:06:24;;;;;;;;;;;;;;;;;;4991748;28;1908;-40
2023/01/04 12:08:51;;;;;;;;;;;;;;;;;;4991426;28;1821;-40
2023/01/04 12:11:23;;;;;;;;;;;;;;;;;;4991991;28;2296;-40
2023/01/04 12:13:50;;;;;;;;;;;;;;;;;;4991907;28;1959;-40
2023/01/04 12:16:20;;;;;;;;;;;;;;;;;;4991783;28;1705;-40
2023/01/04 12:18:47;;;;;;;;;;;;;;;;;;4991792;28;1854;-40
2023/01/04 12:21:22;;;;;;;;;;;;;;;;;;4992097;28;1992;-40
2023/01/04 12:23:51;;;;;;;;;;;;;;;;;;4991722;28;2004;-39
2023/01/04 12:26:18;;;;;;;;;;;;;;;;;;4991642;28;1904;-39
2023/01/04 12:28:47;;;;;;;;;;;;;;;;;;4991651;28;2161;-39
2023/01/04 12:31:20;;;;;;;;;;;;;;;;;;4991950;28;1851;-40
2023/01/04 12:33:56;;;;;;;;;;;;;;;;;;4991690;28;1758;-40
2023/01/04 12:36:38;;;;;;;;;;;;;;;;;;4991542;28;1856;-40
2023/01/04 12:39:15;;;;;;;;;;;;;;;;;;4991367;28;1921;-41
2023/01/04 12:41:59;;;;;;;;;;;;;;;;;;4991889;28;1810;-39
2023/01/04 12:44:32;;;;;;;;;;;;;;;;;;4991479;28;1883;-41
2023/01/04 12:49:57;;;;;;;;;;;;;;;;;;4991476;28;1310;-39
2023/01/04 12:52:25;;;;;;;;;;;;;;;;;;4991220;28;1969;-40
2023/01/04 12:55:22;;;;;;;;;;;;;;;;;;4991761;28;1509;-39
2023/01/04 12:57:49;;;;;;;;;;;;;;;;;;4991273;28;1788;-40
2023/01/04 13:00:16;;;;;;;;;;;;;;;;;;4991681;28;2271;-39
2023/01/04 13:03:06;;;;;;;;;;;;;;;;;;4991621;28;1917;-40
2023/01/04 13:05:37;;;;;;;;;;;;;;;;;;4991597;28;1903;-40
2023/01/04 13:08:24;;;;;;;;;;;;;;;;;;4991112;28;2450;-40
2023/01/04 13:10:52;;;;;;;;;;;;;;;;;;4991435;28;1825;-40
2023/01/04 13:13:27;;;;;;;;;;;;;;;;;;4991203;28;1355;-39
2023/01/04 13:16:00;;;;;;;;;;;;;;;;;;4990542;28;1885;-40
2023/01/04 13:18:39;;;;;;;;;;;;;;;;;;4991903;28;1617;-40
2023/01/04 13:21:19;;;;;;;;;;;;;;;;;;4995082;28;1900;-40
2023/01/04 13:24:08;;;;;;;;;;;;;;;;;;4995039;28;1961;-40
2023/01/04 13:26:39;;;;;;;;;;;;;;;;;;4984635;28;1912;-40
2023/01/04 13:29:11;;;;;;;;;;;;;;;;;;4994829;28;1636;-41
2023/01/04 13:31:49;;;;;;;;;;;;;;;;;;4977208;28;1488;-40
2023/01/04 13:34:18;;;;;;;;;;;;;;;;;;4994747;28;1472;-40
2023/01/04 13:36:58;;;;;;;;;;;;;;;;;;4994697;28;1299;-40
2023/01/04 13:39:27;;;;;;;;;;;;;;;;;;4994460;28;1963;-39
2023/01/04 13:41:55;;;;;;;;;;;;;;;;;;4994571;28;1884;-40
2023/01/04 13:44:38;;;;;;;;;;;;;;;;;;4994514;28;1952;-39
2023/01/04 13:47:26;;;;;;;;;;;;;;;;;;4994337;28;1972;-39
2023/01/04 13:49:53;;;;;;;;;;;;;;;;;;4994297;28;2084;-40
2023/01/04 13:52:27;;;;;;;;;;;;;;;;;;4994862;28;2134;-40
2023/01/04 13:55:19;;;;;;;;;;;;;;;;;;4994221;28;1467;-40
2023/01/04 13:57:55;;;;;;;;;;;;;;;;;;4994123;28;1848;-41
2023/01/04 14:00:32;;;;;;;;;;;;;;;;;;5004418;28;1290;-40
2023/01/04 14:03:09;;;;;;;;;;;;;;;;;;5013693;28;2006;-40
2023/01/04 14:05:37;;;;;;;;;;;;;;;;;;5013691;28;1972;-40
2023/01/04 14:08:10;;;;;;;;;;;;;;;;;;5013670;28;1671;-40
2023/01/04 14:10:41;;;;;;;;;;;;;;;;;;5013618;28;1525;-40
2023/01/04 14:13:13;;;;;;;;;;;;;;;;;;5013402;28;1329;-40
2023/01/04 14:15:41;;;;;;;;;;;;;;;;;;5013490;28;1594;-41
2023/01/04 14:18:24;;;;;;;;;;;;;;;;;;5013416;28;2158;-39
2023/01/04 14:20:52;;;;;;;;;;;;;;;;;;5013691;28;1912;-40
2023/01/04 14:23:32;;;;;;;;;;;;;;;;;;5013363;28;2150;-40
2023/01/04 14:25:59;;;;;;;;;;;;;;;;;;5013433;28;2026;-40
2023/01/04 14:28:28;;;;;;;;;;;;;;;;;;5013214;28;1846;-40
2023/01/04 14:30:55;;;;;;;;;;;;;;;;;;5011220;28;2175;-40
2023/01/04 14:33:44;;;;;;;;;;;;;;;;;;5013342;28;1808;-40
2023/01/04 14:36:13;;;;;;;;;;;;;;;;;;5008281;28;1671;-39
2023/01/04 14:38:52;;;;;;;;;;;;;;;;;;4993527;28;1928;-40
2023/01/04 14:41:30;;;;;;;;;;;;;;;;;;4994113;28;1986;-39
2023/01/04 14:44:00;;;;;;;;;;;;;;;;;;4993322;28;1874;-40
2023/01/04 14:46:28;;;;;;;;;;;;;;;;;;4993064;28;1984;-39
2023/01/04 14:48:55;;;;;;;;;;;;;;;;;;4993274;28;1951;-40
2023/01/04 14:51:25;;;;;;;;;;;;;;;;;;4993438;28;1385;-40
2023/01/04 14:53:53;;;;;;;;;;;;;;;;;;4975919;28;2151;-40
2023/01/04 14:56:20;;;;;;;;;;;;;;;;;;4993416;28;1518;-40
2023/01/04 14:58:48;;;;;;;;;;;;;;;;;;4992643;28;1467;-40
2023/01/04 15:01:15;;;;;;;;;;;;;;;;;;4993073;28;2014;-40
2023/01/04 15:03:42;;;;;;;;;;;;;;;;;;4993100;28;1486;-39
2023/01/04 15:06:09;;;;;;;;;;;;;;;;;;4992866;28;2061;-40
2023/01/04 15:08:36;;;;;;;;;;;;;;;;;;4992982;28;1348;-39
2023/01/04 15:11:03;;;;;;;;;;;;;;;;;;4992106;28;1682;-43
2023/01/04 15:13:36;;;;;;;;;;;;;;;;;;4992650;28;1369;-40
2023/01/04 15:16:06;;;;;;;;;;;;;;;;;;4992744;28;1900;-40
2023/01/04 15:18:33;;;;;;;;;;;;;;;;;;4992856;28;2181;-39
2023/01/04 15:21:01;;;;;;;;;;;;;;;;;;4992893;28;1705;-40
2023/01/04 15:23:29;;;;;;;;;;;;;;;;;;4992447;28;1664;-40
2023/01/04 15:25:56;;;;;;;;;;;;;;;;;;4992630;28;2131;-40
2023/01/04 15:28:25;;;;;;;;;;;;;;;;;;4992877;28;1884;-40
2023/01/04 15:30:52;;;;;;;;;;;;;;;;;;4992983;28;2369;-40
2023/01/04 15:33:19;;;;;;;;;;;;;;;;;;4992433;28;1337;-39
2023/01/04 15:35:47;;;;;;;;;;;;;;;;;;4990926;28;2108;-40
2023/01/04 15:38:15;;;;;;;;;;;;;;;;;;4991067;28;1562;-39
2023/01/04 15:40:48;;;;;;;;;;;;;;;;;;4975827;28;1602;-40
2023/01/04 15:43:16;;;;;;;;;;;;;;;;;;4991188;28;1406;-41
2023/01/04 15:45:44;;;;;;;;;;;;;;;;;;4992153;28;1985;-41
2023/01/04 15:48:11;;;;;;;;;;;;;;;;;;4992208;28;2310;-40
2023/01/04 15:50:39;;;;;;;;;;;;;;;;;;4992261;28;1779;-42
2023/01/04 15:53:09;;;;;;;;;;;;;;;;;;4992064;28;2432;-40
2023/01/04 15:55:37;;;;;;;;;;;;;;;;;;4992261;28;1804;-40
2023/01/04 15:58:04;;;;;;;;;;;;;;;;;;4992110;28;1335;-40
2023/01/04 16:00:31;;;;;;;;;;;;;;;;;;4992017;28;1465;-40
2023/01/04 16:02:59;;;;;;;;;;;;;;;;;;4992282;28;1390;-40
2023/01/04 16:05:26;;;;;;;;;;;;;;;;;;4991820;28;1628;-40
2023/01/04 16:08:00;;;;;;;;;;;;;;;;;;4991851;28;2296;-40
2023/01/04 16:10:27;;;;;;;;;;;;;;;;;;4992072;28;1430;-40
2023/01/04 16:12:54;;;;;;;;;;;;;;;;;;4991925;28;1933;-39
2023/01/04 16:15:23;;;;;;;;;;;;;;;;;;4991877;28;1614;-39
2023/01/04 16:17:50;;;;;;;;;;;;;;;;;;4991576;28;1775;-39
2023/01/04 16:20:17;;;;;;;;;;;;;;;;;;4991791;28;1773;-40
2023/01/04 16:22:45;;;;;;;;;;;;;;;;;;4991699;28;1987;-39
2023/01/04 16:25:15;;;;;;;;;;;;;;;;;;4991789;28;1718;-40
2023/01/04 16:27:43;;;;;;;;;;;;;;;;;;4991617;28;1910;-40
2023/01/04 16:30:12;;;;;;;;;;;;;;;;;;4991606;28;1678;-39
2023/01/04 16:32:41;;;;;;;;;;;;;;;;;;4991536;28;1706;-40
2023/01/04 16:35:11;;;;;;;;;;;;;;;;;;4991565;28;1397;-40
2023/01/04 16:37:38;;;;;;;;;;;;;;;;;;4991695;28;1503;-40
2023/01/04 16:40:05;;;;;;;;;;;;;;;;;;4974204;28;2138;-40
2023/01/04 16:42:34;;;;;;;;;;;;;;;;;;4991492;28;1873;-40
2023/01/04 16:45:02;;;;;;;;;;;;;;;;;;4991201;28;1321;-40
2023/01/04 16:47:36;;;;;;;;;;;;;;;;;;4991719;28;1978;-39
2023/01/04 16:50:03;;;;;;;;;;;;;;;;;;4991641;28;1607;-40
2023/01/04 16:52:30;;;;;;;;;;;;;;;;;;4991589;28;1792;-39
2023/01/04 16:54:58;;;;;;;;;;;;;;;;;;4995180;28;1840;-39
2023/01/04 16:57:25;;;;;;;;;;;;;;;;;;4995379;28;1703;-40
2023/01/04 16:59:52;;;;;;;;;;;;;;;;;;4995263;28;1969;-40
2023/01/04 17:02:23;;;;;;;;;;;;;;;;;;4995223;28;1993;-40
2023/01/04 17:04:55;;;;;;;;;;;;;;;;;;4993986;28;2002;-40
2023/01/04 17:07:31;;;;;;;;;;;;;;;;;;4993841;28;1908;-40
2023/01/04 17:09:59;;;;;;;;;;;;;;;;;;4993570;28;2055;-41
2023/01/04 17:12:27;;;;;;;;;;;;;;;;;;4995103;28;1578;-40
2023/01/04 17:15:14;;;;;;;;;;;;;;;;;;4995014;28;1790;-39
2023/01/04 17:18:01;;;;;;;;;;;;;;;;;;4995198;28;2137;-40
2023/01/04 17:20:29;;;;;;;;;;;;;;;;;;4994814;28;1443;-40
2023/01/04 17:22:56;;;;;;;;;;;;;;;;;;4994951;28;1691;-39
2023/01/04 17:25:23;;;;;;;;;;;;;;;;;;4994988;28;2034;-40
2023/01/04 17:27:50;;;;;;;;;;;;;;;;;;4995372;28;1914;-40
2023/01/04 17:30:17;;;;;;;;;;;;;;;;;;4994845;28;1849;-39
2023/01/04 17:32:44;;;;;;;;;;;;;;;;;;4994805;28;1893;-40
2023/01/04 17:35:12;;;;;;;;;;;;;;;;;;4994778;28;1423;-40
2023/01/04 17:37:50;;;;;;;;;;;;;;;;;;4994623;28;1894;-40
2023/01/04 17:40:17;;;;;;;;;;;;;;;;;;4994536;28;1725;-40
2023/01/04 17:42:48;;;;;;;;;;;;;;;;;;4994512;28;1867;-39
2023/01/04 17:45:16;;;;;;;;;;;;;;;;;;4994480;28;1720;-40
2023/01/04 17:47:43;;;;;;;;;;;;;;;;;;4994184;28;1918;-40
2023/01/04 17:50:10;;;;;;;;;;;;;;;;;;4994587;28;2454;-39
2023/01/04 17:52:40;;;;;;;;;;;;;;;;;;4994523;28;1457;-40
2023/01/04 17:55:07;;;;;;;;;;;;;;;;;;4994470;28;2077;-40
2023/01/04 17:57:36;;;;;;;;;;;;;;;;;;4994521;28;2079;-41
2023/01/04 18:00:06;;;;;;;;;;;;;;;;;;4994319;28;1895;-39
2023/01/04 18:02:35;;;;;;;;;;;;;;;;;;4994382;28;1387;-40
2023/01/04 18:05:04;;;;;;;;;;;;;;;;;;4993420;28;1819;-40
2023/01/04 18:07:40;;;;;;;;;;;;;;;;;;4993961;28;1905;-39
2023/01/04 18:10:11;;;;;;;;;;;;;;;;;;4992899;28;1743;-39
2023/01/04 18:12:49;;;;;;;;;;;;;;;;;;4994051;28;1704;-42
2023/01/04 18:15:16;;;;;;;;;;;;;;;;;;4993978;28;1935;-42
2023/01/04 18:17:43;;;;;;;;;;;;;;;;;;4993877;28;1688;-42